sensor_id;sensor_type;location;lat;lon;timestamp;pressure;altitude;pressure_sealevel;temperature;humidity
4617;BME280;2321;42.704;23.384;2023-04-15T00:00:44;94681.88;;;8.85;nan
4617;BME280;2321;42.704;23.384;2023-04-15T00:03:11;94680.63;;;8.81;nan
4617;BME280;2321;42.704;23.384;2023-04-15T00:05:39;94675.34;;;8.81;nan
4617;BME280;2321;42.704;23.384;2023-04-15T00:08:06;94703.09;;;8.78;nan
4617;BME280;2321;42.704;23.384;2023-04-15T00:10:33;94723.03;;;8.60;nan
4617;BME280;2321;42.704;23.384;2023-04-15T00:13:00;94722.81;;;8.26;nan
4617;BME280;2321;42.704;23.384;2023-04-15T00:15:28;94719.81;;;8.07;nan
4617;BME280;2321;42.704;23.384;2023-04-15T00:17:56;94723.69;;;8.05;nan
4617;BME280;2321;42.704;23.384;2023-04-15T00:20:23;94719.75;;;7.94;nan
4617;BME280;2321;42.704;23.384;2023-04-15T00:22:51;94722.41;;;8.01;nan
4617;BME280;2321;42.704;23.384;2023-04-15T00:25:18;94701.84;;;8.03;nan
4617;BME280;2321;42.704;23.384;2023-04-15T00:27:44;94716.41;;;8.14;nan
4617;BME280;2321;42.704;23.384;2023-04-15T00:30:12;94714.78;;;8.20;nan
4617;BME280;2321;42.704;23.384;2023-04-15T00:32:39;94706.63;;;8.14;nan
4617;BME280;2321;42.704;23.384;2023-04-15T00:35:07;94706.41;;;8.16;nan
4617;BME280;2321;42.704;23.384;2023-04-15T00:37:34;94692.97;;;8.17;nan
4617;BME280;2321;42.704;23.384;2023-04-15T00:40:03;94694.84;;;8.24;nan
4617;BME280;2321;42.704;23.384;2023-04-15T00:42:33;94701.19;;;8.30;nan
4617;BME280;2321;42.704;23.384;2023-04-15T00:45:00;94694.50;;;8.34;nan
4617;BME280;2321;42.704;23.384;2023-04-15T00:47:28;94705.44;;;8.24;nan
4617;BME280;2321;42.704;23.384;2023-04-15T00:49:56;94715.81;;;8.19;nan
4617;BME280;2321;42.704;23.384;2023-04-15T00:52:23;94717.16;;;8.07;nan
4617;BME280;2321;42.704;23.384;2023-04-15T00:54:50;94717.50;;;7.98;nan
4617;BME280;2321;42.704;23.384;2023-04-15T00:57:20;94726.53;;;8.03;nan
4617;BME280;2321;42.704;23.384;2023-04-15T00:59:47;94713.31;;;8.10;nan
4617;BME280;2321;42.704;23.384;2023-04-15T01:02:14;94710.91;;;8.15;nan
4617;BME280;2321;42.704;23.384;2023-04-15T01:04:41;94713.13;;;8.12;nan
4617;BME280;2321;42.704;23.384;2023-04-15T01:07:08;94719.66;;;8.16;nan
4617;BME280;2321;42.704;23.384;2023-04-15T01:09:35;94716.44;;;8.21;nan
4617;BME280;2321;42.704;23.384;2023-04-15T01:12:01;94715.84;;;8.25;nan
4617;BME280;2321;42.704;23.384;2023-04-15T01:14:31;94715.47;;;8.28;nan
4617;BME280;2321;42.704;23.384;2023-04-15T01:16:59;94714.22;;;8.24;nan
4617;BME280;2321;42.704;23.384;2023-04-15T01:19:26;94711.75;;;8.23;nan
4617;BME280;2321;42.704;23.384;2023-04-15T01:21:53;94715.66;;;8.27;nan
4617;BME280;2321;42.704;23.384;2023-04-15T01:24:22;94713.59;;;8.22;nan
4617;BME280;2321;42.704;23.384;2023-04-15T01:26:51;94713.19;;;8.25;nan
4617;BME280;2321;42.704;23.384;2023-04-15T01:29:17;94700.59;;;8.27;nan
4617;BME280;2321;42.704;23.384;2023-04-15T01:31:49;94698.34;;;8.31;nan
4617;BME280;2321;42.704;23.384;2023-04-15T01:34:16;94693.41;;;8.21;nan
4617;BME280;2321;42.704;23.384;2023-04-15T01:36:43;94710.91;;;8.15;nan
4617;BME280;2321;42.704;23.384;2023-04-15T01:39:10;94714.19;;;8.17;nan
4617;BME280;2321;42.704;23.384;2023-04-15T01:41:37;94717.44;;;8.20;nan
4617;BME280;2321;42.704;23.384;2023-04-15T01:44:06;94726.00;;;8.15;nan
4617;BME280;2321;42.704;23.384;2023-04-15T01:46:34;94715.56;;;8.13;nan
4617;BME280;2321;42.704;23.384;2023-04-15T01:49:01;94721.84;;;8.05;nan
4617;BME280;2321;42.704;23.384;2023-04-15T01:51:28;94721.22;;;8.03;nan
4617;BME280;2321;42.704;23.384;2023-04-15T01:53:55;94721.78;;;7.99;nan
4617;BME280;2321;42.704;23.384;2023-04-15T01:56:22;94730.34;;;7.94;nan
4617;BME280;2321;42.704;23.384;2023-04-15T01:58:49;94734.94;;;7.85;nan
4617;BME280;2321;42.704;23.384;2023-04-15T02:01:18;94738.41;;;7.85;nan
4617;BME280;2321;42.704;23.384;2023-04-15T02:03:45;94699.13;;;7.45;nan
4617;BME280;2321;42.704;23.384;2023-04-15T02:06:12;94728.72;;;7.71;nan
4617;BME280;2321;42.704;23.384;2023-04-15T02:08:39;94731.13;;;7.66;nan
4617;BME280;2321;42.704;23.384;2023-04-15T02:11:06;94734.59;;;7.66;nan
4617;BME280;2321;42.704;23.384;2023-04-15T02:13:32;94733.16;;;7.63;nan
4617;BME280;2321;42.704;23.384;2023-04-15T02:15:59;94743.41;;;7.51;nan
4617;BME280;2321;42.704;23.384;2023-04-15T02:18:27;94734.78;;;7.43;nan
4617;BME280;2321;42.704;23.384;2023-04-15T02:20:54;94728.78;;;7.34;nan
4617;BME280;2321;42.704;23.384;2023-04-15T02:23:22;94730.56;;;7.26;nan
4617;BME280;2321;42.704;23.384;2023-04-15T02:25:49;94723.09;;;7.15;nan
4617;BME280;2321;42.704;23.384;2023-04-15T02:28:16;94728.41;;;7.00;nan
4617;BME280;2321;42.704;23.384;2023-04-15T02:30:46;94723.41;;;7.05;nan
4617;BME280;2321;42.704;23.384;2023-04-15T02:33:13;94724.56;;;7.02;nan
4617;BME280;2321;42.704;23.384;2023-04-15T02:35:42;94731.25;;;6.98;nan
4617;BME280;2321;42.704;23.384;2023-04-15T02:38:09;94725.25;;;6.89;nan
4617;BME280;2321;42.704;23.384;2023-04-15T02:40:37;94723.47;;;6.74;nan
4617;BME280;2321;42.704;23.384;2023-04-15T02:43:03;94724.00;;;6.70;nan
4617;BME280;2321;42.704;23.384;2023-04-15T02:45:31;94724.66;;;6.57;nan
4617;BME280;2321;42.704;23.384;2023-04-15T02:47:58;94725.22;;;6.37;nan
4617;BME280;2321;42.704;23.384;2023-04-15T02:50:28;94735.78;;;6.21;nan
4617;BME280;2321;42.704;23.384;2023-04-15T02:52:57;94747.91;;;6.16;nan
4617;BME280;2321;42.704;23.384;2023-04-15T02:55:25;94753.63;;;6.19;nan
4617;BME280;2321;42.704;23.384;2023-04-15T02:57:52;94743.25;;;6.18;nan
4617;BME280;2321;42.704;23.384;2023-04-15T03:00:19;94752.53;;;6.14;nan
4617;BME280;2321;42.704;23.384;2023-04-15T03:02:46;94755.22;;;6.05;nan
4617;BME280;2321;42.704;23.384;2023-04-15T03:05:16;94743.34;;;6.09;nan
4617;BME280;2321;42.704;23.384;2023-04-15T03:07:43;94743.19;;;6.03;nan
4617;BME280;2321;42.704;23.384;2023-04-15T03:10:11;94743.66;;;6.06;nan
4617;BME280;2321;42.704;23.384;2023-04-15T03:12:38;94749.19;;;5.96;nan
4617;BME280;2321;42.704;23.384;2023-04-15T03:15:06;94753.16;;;6.01;nan
4617;BME280;2321;42.704;23.384;2023-04-15T03:17:34;94746.16;;;6.08;nan
4617;BME280;2321;42.704;23.384;2023-04-15T03:20:01;94751.06;;;6.11;nan
4617;BME280;2321;42.704;23.384;2023-04-15T03:22:28;94751.75;;;6.13;nan
4617;BME280;2321;42.704;23.384;2023-04-15T03:24:55;94758.84;;;6.13;nan
4617;BME280;2321;42.704;23.384;2023-04-15T03:27:23;94749.88;;;6.14;nan
4617;BME280;2321;42.704;23.384;2023-04-15T03:29:50;94749.38;;;6.18;nan
4617;BME280;2321;42.704;23.384;2023-04-15T03:32:17;94770.41;;;6.12;nan
4617;BME280;2321;42.704;23.384;2023-04-15T03:34:44;94771.03;;;6.14;nan
4617;BME280;2321;42.704;23.384;2023-04-15T03:37:11;94772.69;;;6.15;nan
4617;BME280;2321;42.704;23.384;2023-04-15T03:39:38;94789.59;;;6.05;nan
4617;BME280;2321;42.704;23.384;2023-04-15T03:42:05;94779.03;;;6.05;nan
4617;BME280;2321;42.704;23.384;2023-04-15T03:44:33;94779.66;;;6.07;nan
4617;BME280;2321;42.704;23.384;2023-04-15T03:47:00;94793.03;;;5.91;nan
4617;BME280;2321;42.704;23.384;2023-04-15T03:49:27;94791.38;;;5.89;nan
4617;BME280;2321;42.704;23.384;2023-04-15T03:51:54;94796.13;;;5.94;nan
4617;BME280;2321;42.704;23.384;2023-04-15T03:54:21;94802.53;;;6.00;nan
4617;BME280;2321;42.704;23.384;2023-04-15T03:56:48;94800.25;;;5.97;nan
4617;BME280;2321;42.704;23.384;2023-04-15T03:59:16;94794.88;;;6.05;nan
4617;BME280;2321;42.704;23.384;2023-04-15T04:01:44;94805.44;;;6.05;nan
4617;BME280;2321;42.704;23.384;2023-04-15T04:04:11;94799.84;;;6.08;nan
4617;BME280;2321;42.704;23.384;2023-04-15T04:06:38;94794.19;;;6.12;nan
4617;BME280;2321;42.704;23.384;2023-04-15T04:09:05;94799.84;;;6.08;nan
4617;BME280;2321;42.704;23.384;2023-04-15T04:11:31;94802.94;;;6.12;nan
4617;BME280;2321;42.704;23.384;2023-04-15T04:13:58;94808.34;;;6.19;nan
4617;BME280;2321;42.704;23.384;2023-04-15T04:16:25;94799.69;;;6.25;nan
4617;BME280;2321;42.704;23.384;2023-04-15T04:18:54;94810.72;;;6.29;nan
4617;BME280;2321;42.704;23.384;2023-04-15T04:21:20;94799.78;;;6.32;nan
4617;BME280;2321;42.704;23.384;2023-04-15T04:23:47;94809.00;;;6.36;nan
4617;BME280;2321;42.704;23.384;2023-04-15T04:26:14;94804.19;;;6.40;nan
4617;BME280;2321;42.704;23.384;2023-04-15T04:28:41;94804.00;;;6.41;nan
4617;BME280;2321;42.704;23.384;2023-04-15T04:31:08;94794.81;;;6.52;nan
4617;BME280;2321;42.704;23.384;2023-04-15T04:33:35;94797.34;;;6.61;nan
4617;BME280;2321;42.704;23.384;2023-04-15T04:36:04;94807.84;;;6.69;nan
4617;BME280;2321;42.704;23.384;2023-04-15T04:38:31;94819.50;;;6.75;nan
4617;BME280;2321;42.704;23.384;2023-04-15T04:40:58;94829.19;;;6.83;nan
4617;BME280;2321;42.704;23.384;2023-04-15T04:43:25;94832.75;;;6.90;nan
4617;BME280;2321;42.704;23.384;2023-04-15T04:45:52;94827.44;;;6.90;nan
4617;BME280;2321;42.704;23.384;2023-04-15T04:48:19;94829.38;;;6.81;nan
4617;BME280;2321;42.704;23.384;2023-04-15T04:50:46;94827.00;;;6.71;nan
4617;BME280;2321;42.704;23.384;2023-04-15T04:53:15;94831.94;;;6.59;nan
4617;BME280;2321;42.704;23.384;2023-04-15T04:55:42;94836.41;;;6.59;nan
4617;BME280;2321;42.704;23.384;2023-04-15T04:58:09;94821.78;;;6.63;nan
4617;BME280;2321;42.704;23.384;2023-04-15T05:00:36;94828.00;;;6.70;nan
4617;BME280;2321;42.704;23.384;2023-04-15T05:03:03;94834.84;;;6.80;nan
4617;BME280;2321;42.704;23.384;2023-04-15T05:05:30;94844.16;;;6.91;nan
4617;BME280;2321;42.704;23.384;2023-04-15T05:07:57;94843.88;;;7.01;nan
4617;BME280;2321;42.704;23.384;2023-04-15T05:10:25;94844.16;;;7.06;nan
4617;BME280;2321;42.704;23.384;2023-04-15T05:12:52;94849.38;;;7.14;nan
4617;BME280;2321;42.704;23.384;2023-04-15T05:15:19;94852.38;;;7.26;nan
4617;BME280;2321;42.704;23.384;2023-04-15T05:17:46;94864.66;;;7.34;nan
4617;BME280;2321;42.704;23.384;2023-04-15T05:20:13;94861.66;;;7.37;nan
4617;BME280;2321;42.704;23.384;2023-04-15T05:22:40;94841.47;;;7.36;nan
4617;BME280;2321;42.704;23.384;2023-04-15T05:25:07;94860.88;;;7.59;nan
4617;BME280;2321;42.704;23.384;2023-04-15T05:27:35;94857.81;;;7.77;nan
4617;BME280;2321;42.704;23.384;2023-04-15T05:30:03;94863.13;;;7.99;nan
4617;BME280;2321;42.704;23.384;2023-04-15T05:32:30;94869.25;;;8.22;nan
4617;BME280;2321;42.704;23.384;2023-04-15T05:34:57;94866.16;;;8.40;nan
4617;BME280;2321;42.704;23.384;2023-04-15T05:37:23;94864.28;;;8.63;nan
4617;BME280;2321;42.704;23.384;2023-04-15T05:39:50;94866.44;;;8.81;nan
4617;BME280;2321;42.704;23.384;2023-04-15T05:42:17;94853.06;;;8.96;nan
4617;BME280;2321;42.704;23.384;2023-04-15T05:44:45;94860.56;;;9.21;nan
4617;BME280;2321;42.704;23.384;2023-04-15T05:47:12;94856.94;;;9.36;nan
4617;BME280;2321;42.704;23.384;2023-04-15T05:49:39;94859.44;;;9.51;nan
4617;BME280;2321;42.704;23.384;2023-04-15T05:52:06;94870.56;;;9.68;nan
4617;BME280;2321;42.704;23.384;2023-04-15T05:54:33;94860.59;;;9.84;nan
4617;BME280;2321;42.704;23.384;2023-04-15T05:57:00;94873.72;;;9.99;nan
4617;BME280;2321;42.704;23.384;2023-04-15T05:59:27;94880.91;;;10.19;nan
4617;BME280;2321;42.704;23.384;2023-04-15T06:01:55;94891.97;;;10.37;nan
4617;BME280;2321;42.704;23.384;2023-04-15T06:04:22;94894.88;;;10.55;nan
4617;BME280;2321;42.704;23.384;2023-04-15T06:06:49;94854.53;;;10.45;nan
4617;BME280;2321;42.704;23.384;2023-04-15T06:09:16;94900.81;;;10.78;nan
4617;BME280;2321;42.704;23.384;2023-04-15T06:11:43;94894.44;;;10.86;nan
4617;BME280;2321;42.704;23.384;2023-04-15T06:14:10;94898.75;;;11.00;nan
4617;BME280;2321;42.704;23.384;2023-04-15T06:16:37;94900.97;;;11.17;nan
4617;BME280;2321;42.704;23.384;2023-04-15T06:19:05;94888.81;;;11.35;nan
4617;BME280;2321;42.704;23.384;2023-04-15T06:21:32;94895.16;;;11.41;nan
4617;BME280;2321;42.704;23.384;2023-04-15T06:23:59;94892.69;;;11.53;nan
4617;BME280;2321;42.704;23.384;2023-04-15T06:26:27;94902.69;;;11.64;nan
4617;BME280;2321;42.704;23.384;2023-04-15T06:28:54;94910.03;;;11.69;nan
4617;BME280;2321;42.704;23.384;2023-04-15T06:31:21;94907.13;;;11.77;nan
4617;BME280;2321;42.704;23.384;2023-04-15T06:33:48;94913.66;;;11.88;nan
4617;BME280;2321;42.704;23.384;2023-04-15T06:36:16;94910.13;;;12.02;nan
4617;BME280;2321;42.704;23.384;2023-04-15T06:38:43;94915.41;;;12.08;nan
4617;BME280;2321;42.704;23.384;2023-04-15T06:41:11;94920.72;;;12.15;nan
4617;BME280;2321;42.704;23.384;2023-04-15T06:43:38;94916.63;;;12.19;nan
4617;BME280;2321;42.704;23.384;2023-04-15T06:46:05;94924.41;;;12.21;nan
4617;BME280;2321;42.704;23.384;2023-04-15T06:48:32;94919.81;;;12.35;nan
4617;BME280;2321;42.704;23.384;2023-04-15T06:50:59;94919.69;;;12.49;nan
4617;BME280;2321;42.704;23.384;2023-04-15T06:53:27;94931.38;;;12.55;nan
4617;BME280;2321;42.704;23.384;2023-04-15T06:55:54;94930.50;;;12.61;nan
4617;BME280;2321;42.704;23.384;2023-04-15T06:58:21;94929.31;;;12.57;nan
4617;BME280;2321;42.704;23.384;2023-04-15T07:00:48;94937.50;;;12.62;nan
4617;BME280;2321;42.704;23.384;2023-04-15T07:03:15;94928.81;;;12.67;nan
4617;BME280;2321;42.704;23.384;2023-04-15T07:05:42;94925.66;;;12.77;nan
4617;BME280;2321;42.704;23.384;2023-04-15T07:08:09;94923.63;;;12.79;nan
4617;BME280;2321;42.704;23.384;2023-04-15T07:10:38;94923.06;;;12.95;nan
4617;BME280;2321;42.704;23.384;2023-04-15T07:13:04;94924.19;;;13.06;nan
4617;BME280;2321;42.704;23.384;2023-04-15T07:15:33;94925.53;;;13.16;nan
4617;BME280;2321;42.704;23.384;2023-04-15T07:18:00;94930.44;;;13.19;nan
4617;BME280;2321;42.704;23.384;2023-04-15T07:20:27;94926.31;;;13.23;nan
4617;BME280;2321;42.704;23.384;2023-04-15T07:22:54;94925.63;;;13.28;nan
4617;BME280;2321;42.704;23.384;2023-04-15T07:25:21;94927.41;;;13.34;nan
4617;BME280;2321;42.704;23.384;2023-04-15T07:27:49;94932.50;;;13.43;nan
4617;BME280;2321;42.704;23.384;2023-04-15T07:30:17;94925.75;;;13.59;nan
4617;BME280;2321;42.704;23.384;2023-04-15T07:32:43;94934.28;;;13.68;nan
4617;BME280;2321;42.704;23.384;2023-04-15T07:35:11;94936.69;;;13.76;nan
4617;BME280;2321;42.704;23.384;2023-04-15T07:37:38;94927.06;;;13.87;nan
4617;BME280;2321;42.704;23.384;2023-04-15T07:40:06;94931.22;;;14.02;nan
4617;BME280;2321;42.704;23.384;2023-04-15T07:42:34;94923.56;;;14.05;nan
4617;BME280;2321;42.704;23.384;2023-04-15T07:45:02;94919.75;;;14.13;nan
4617;BME280;2321;42.704;23.384;2023-04-15T07:47:29;94919.81;;;14.25;nan
4617;BME280;2321;42.704;23.384;2023-04-15T07:49:56;94929.50;;;14.38;nan
4617;BME280;2321;42.704;23.384;2023-04-15T07:52:23;94935.72;;;14.51;nan
4617;BME280;2321;42.704;23.384;2023-04-15T07:54:50;94941.91;;;14.64;nan
4617;BME280;2321;42.704;23.384;2023-04-15T07:57:17;94949.63;;;14.72;nan
4617;BME280;2321;42.704;23.384;2023-04-15T07:59:44;94950.59;;;14.78;nan
4617;BME280;2321;42.704;23.384;2023-04-15T08:02:12;94957.78;;;14.65;nan
4617;BME280;2321;42.704;23.384;2023-04-15T08:04:39;94955.81;;;14.42;nan
4617;BME280;2321;42.704;23.384;2023-04-15T08:07:06;94944.91;;;14.43;nan
4617;BME280;2321;42.704;23.384;2023-04-15T08:09:33;94957.97;;;14.52;nan
4617;BME280;2321;42.704;23.384;2023-04-15T08:12:00;94957.88;;;14.58;nan
4617;BME280;2321;42.704;23.384;2023-04-15T08:14:28;94940.78;;;14.72;nan
4617;BME280;2321;42.704;23.384;2023-04-15T08:16:54;94942.91;;;14.94;nan
4617;BME280;2321;42.704;23.384;2023-04-15T08:19:23;94947.03;;;15.08;nan
4617;BME280;2321;42.704;23.384;2023-04-15T08:21:50;94948.44;;;15.11;nan
4617;BME280;2321;42.704;23.384;2023-04-15T08:24:17;94948.91;;;15.20;nan
4617;BME280;2321;42.704;23.384;2023-04-15T08:26:44;94951.81;;;15.30;nan
4617;BME280;2321;42.704;23.384;2023-04-15T08:29:11;94951.00;;;15.42;nan
4617;BME280;2321;42.704;23.384;2023-04-15T08:31:38;94948.19;;;15.49;nan
4617;BME280;2321;42.704;23.384;2023-04-15T08:34:05;94941.88;;;15.55;nan
4617;BME280;2321;42.704;23.384;2023-04-15T08:36:33;94941.31;;;15.53;nan
4617;BME280;2321;42.704;23.384;2023-04-15T08:39:00;94940.38;;;15.59;nan
4617;BME280;2321;42.704;23.384;2023-04-15T08:41:33;94932.78;;;15.68;nan
4617;BME280;2321;42.704;23.384;2023-04-15T08:44:04;94931.78;;;15.86;nan
4617;BME280;2321;42.704;23.384;2023-04-15T08:46:31;94925.09;;;16.01;nan
4617;BME280;2321;42.704;23.384;2023-04-15T08:48:59;94925.91;;;16.14;nan
4617;BME280;2321;42.704;23.384;2023-04-15T08:51:29;94918.75;;;16.19;nan
4617;BME280;2321;42.704;23.384;2023-04-15T08:53:59;94919.53;;;16.32;nan
4617;BME280;2321;42.704;23.384;2023-04-15T08:56:27;94927.31;;;16.46;nan
4617;BME280;2321;42.704;23.384;2023-04-15T08:58:57;94926.00;;;16.65;nan
4617;BME280;2321;42.704;23.384;2023-04-15T09:01:24;94921.72;;;16.82;nan
4617;BME280;2321;42.704;23.384;2023-04-15T09:03:52;94913.91;;;16.97;nan
4617;BME280;2321;42.704;23.384;2023-04-15T09:06:20;94906.31;;;16.94;nan
4617;BME280;2321;42.704;23.384;2023-04-15T09:08:47;94906.75;;;16.86;nan
4617;BME280;2321;42.704;23.384;2023-04-15T09:11:16;94908.75;;;16.79;nan
4617;BME280;2321;42.704;23.384;2023-04-15T09:13:43;94905.59;;;16.82;nan
4617;BME280;2321;42.704;23.384;2023-04-15T09:16:10;94870.81;;;16.58;nan
4617;BME280;2321;42.704;23.384;2023-04-15T09:18:38;94900.97;;;16.77;nan
4617;BME280;2321;42.704;23.384;2023-04-15T09:21:06;94889.78;;;16.85;nan
4617;BME280;2321;42.704;23.384;2023-04-15T09:23:33;94887.56;;;16.99;nan
4617;BME280;2321;42.704;23.384;2023-04-15T09:26:00;94886.09;;;17.09;nan
4617;BME280;2321;42.704;23.384;2023-04-15T09:28:29;94885.22;;;17.20;nan
4617;BME280;2321;42.704;23.384;2023-04-15T09:30:56;94890.69;;;17.26;nan
4617;BME280;2321;42.704;23.384;2023-04-15T09:33:24;94893.03;;;17.22;nan
4617;BME280;2321;42.704;23.384;2023-04-15T09:35:59;94878.91;;;17.15;nan
4617;BME280;2321;42.704;23.384;2023-04-15T09:38:26;94893.28;;;17.20;nan
4617;BME280;2321;42.704;23.384;2023-04-15T09:40:53;94891.00;;;17.29;nan
4617;BME280;2321;42.704;23.384;2023-04-15T09:43:20;94895.03;;;17.49;nan
4617;BME280;2321;42.704;23.384;2023-04-15T09:45:50;94893.34;;;17.66;nan
4617;BME280;2321;42.704;23.384;2023-04-15T09:48:18;94889.16;;;17.75;nan
4617;BME280;2321;42.704;23.384;2023-04-15T09:50:47;94894.34;;;17.82;nan
4617;BME280;2321;42.704;23.384;2023-04-15T09:53:18;94896.25;;;17.81;nan
4617;BME280;2321;42.704;23.384;2023-04-15T09:55:49;94895.47;;;17.86;nan
4617;BME280;2321;42.704;23.384;2023-04-15T09:58:17;94894.47;;;17.92;nan
4617;BME280;2321;42.704;23.384;2023-04-15T10:00:46;94898.78;;;17.93;nan
4617;BME280;2321;42.704;23.384;2023-04-15T10:03:18;94899.84;;;17.92;nan
4617;BME280;2321;42.704;23.384;2023-04-15T10:05:46;94893.66;;;17.92;nan
4617;BME280;2321;42.704;23.384;2023-04-15T10:08:15;94891.28;;;17.95;nan
4617;BME280;2321;42.704;23.384;2023-04-15T10:10:44;94885.06;;;17.95;nan
4617;BME280;2321;42.704;23.384;2023-04-15T10:13:12;94881.91;;;18.03;nan
4617;BME280;2321;42.704;23.384;2023-04-15T10:15:41;94881.00;;;17.92;nan
4617;BME280;2321;42.704;23.384;2023-04-15T10:18:10;94877.94;;;17.83;nan
4617;BME280;2321;42.704;23.384;2023-04-15T10:20:40;94868.19;;;17.77;nan
4617;BME280;2321;42.704;23.384;2023-04-15T10:23:08;94872.69;;;17.71;nan
4617;BME280;2321;42.704;23.384;2023-04-15T10:25:35;94853.09;;;17.53;nan
4617;BME280;2321;42.704;23.384;2023-04-15T10:28:04;94856.34;;;17.56;nan
4617;BME280;2321;42.704;23.384;2023-04-15T10:30:32;94860.34;;;17.53;nan
4617;BME280;2321;42.704;23.384;2023-04-15T10:32:59;94851.09;;;17.66;nan
4617;BME280;2321;42.704;23.384;2023-04-15T10:35:28;94844.44;;;17.74;nan
4617;BME280;2321;42.704;23.384;2023-04-15T10:37:56;94840.25;;;17.83;nan
4617;BME280;2321;42.704;23.384;2023-04-15T10:40:28;94856.53;;;17.94;nan
4617;BME280;2321;42.704;23.384;2023-04-15T10:42:57;94849.59;;;18.03;nan
4617;BME280;2321;42.704;23.384;2023-04-15T10:45:25;94844.59;;;18.12;nan
4617;BME280;2321;42.704;23.384;2023-04-15T10:47:56;94848.66;;;18.15;nan
4617;BME280;2321;42.704;23.384;2023-04-15T10:50:25;94845.38;;;18.13;nan
4617;BME280;2321;42.704;23.384;2023-04-15T10:52:56;94844.22;;;18.03;nan
4617;BME280;2321;42.704;23.384;2023-04-15T10:55:24;94817.06;;;17.82;nan
4617;BME280;2321;42.704;23.384;2023-04-15T10:57:52;94840.97;;;18.01;nan
4617;BME280;2321;42.704;23.384;2023-04-15T11:00:24;94837.53;;;18.06;nan
4617;BME280;2321;42.704;23.384;2023-04-15T11:02:52;94843.78;;;18.12;nan
4617;BME280;2321;42.704;23.384;2023-04-15T11:05:49;94840.31;;;18.16;nan
4617;BME280;2321;42.704;23.384;2023-04-15T11:08:21;94835.91;;;18.33;nan
4617;BME280;2321;42.704;23.384;2023-04-15T11:11:05;94844.53;;;18.35;nan
4617;BME280;2321;42.704;23.384;2023-04-15T11:13:32;94830.91;;;18.19;nan
4617;BME280;2321;42.704;23.384;2023-04-15T11:16:02;94852.91;;;18.33;nan
4617;BME280;2321;42.704;23.384;2023-04-15T11:18:30;94847.00;;;18.36;nan
4617;BME280;2321;42.704;23.384;2023-04-15T11:20:59;94844.69;;;18.50;nan
4617;BME280;2321;42.704;23.384;2023-04-15T11:23:32;94848.00;;;18.58;nan
4617;BME280;2321;42.704;23.384;2023-04-15T11:26:00;94831.81;;;18.58;nan
4617;BME280;2321;42.704;23.384;2023-04-15T11:28:28;94833.41;;;18.59;nan
4617;BME280;2321;42.704;23.384;2023-04-15T11:30:56;94832.59;;;18.58;nan
4617;BME280;2321;42.704;23.384;2023-04-15T11:33:24;94822.38;;;18.55;nan
4617;BME280;2321;42.704;23.384;2023-04-15T11:35:52;94832.38;;;18.60;nan
4617;BME280;2321;42.704;23.384;2023-04-15T11:38:19;94828.84;;;18.59;nan
4617;BME280;2321;42.704;23.384;2023-04-15T11:40:49;94829.38;;;18.56;nan
4617;BME280;2321;42.704;23.384;2023-04-15T11:43:19;94832.91;;;18.62;nan
4617;BME280;2321;42.704;23.384;2023-04-15T11:45:56;94825.66;;;18.68;nan
4617;BME280;2321;42.704;23.384;2023-04-15T11:48:25;94822.19;;;18.67;nan
4617;BME280;2321;42.704;23.384;2023-04-15T11:50:56;94825.16;;;18.71;nan
4617;BME280;2321;42.704;23.384;2023-04-15T11:53:25;94818.47;;;18.73;nan
4617;BME280;2321;42.704;23.384;2023-04-15T11:56:03;94815.56;;;18.86;nan
4617;BME280;2321;42.704;23.384;2023-04-15T11:58:30;94813.50;;;18.98;nan
4617;BME280;2321;42.704;23.384;2023-04-15T12:00:58;94817.88;;;19.10;nan
4617;BME280;2321;42.704;23.384;2023-04-15T12:03:26;94823.81;;;19.12;nan
4617;BME280;2321;42.704;23.384;2023-04-15T12:06:16;94806.28;;;19.14;nan
4617;BME280;2321;42.704;23.384;2023-04-15T12:08:57;94808.78;;;19.21;nan
4617;BME280;2321;42.704;23.384;2023-04-15T12:11:37;94816.59;;;19.23;nan
4617;BME280;2321;42.704;23.384;2023-04-15T12:14:07;94810.06;;;19.13;nan
4617;BME280;2321;42.704;23.384;2023-04-15T12:16:35;94819.22;;;19.12;nan
4617;BME280;2321;42.704;23.384;2023-04-15T12:19:05;94810.06;;;19.13;nan
4617;BME280;2321;42.704;23.384;2023-04-15T12:21:35;94812.47;;;19.10;nan
4617;BME280;2321;42.704;23.384;2023-04-15T12:24:03;94812.19;;;19.11;nan
4617;BME280;2321;42.704;23.384;2023-04-15T12:26:34;94815.25;;;19.20;nan
4617;BME280;2321;42.704;23.384;2023-04-15T12:29:01;94812.03;;;19.23;nan
4617;BME280;2321;42.704;23.384;2023-04-15T12:31:29;94811.78;;;19.25;nan
4617;BME280;2321;42.704;23.384;2023-04-15T12:33:56;94825.56;;;19.29;nan
4617;BME280;2321;42.704;23.384;2023-04-15T12:36:25;94819.63;;;19.32;nan
4617;BME280;2321;42.704;23.384;2023-04-15T12:38:52;94812.06;;;19.29;nan
4617;BME280;2321;42.704;23.384;2023-04-15T12:41:19;94813.72;;;19.35;nan
4617;BME280;2321;42.704;23.384;2023-04-15T12:43:48;94821.56;;;19.42;nan
4617;BME280;2321;42.704;23.384;2023-04-15T12:46:18;94821.56;;;19.42;nan
4617;BME280;2321;42.704;23.384;2023-04-15T12:48:49;94827.47;;;19.33;nan
4617;BME280;2321;42.704;23.384;2023-04-15T12:51:16;94818.84;;;19.36;nan
4617;BME280;2321;42.704;23.384;2023-04-15T12:53:43;94820.78;;;19.46;nan
4617;BME280;2321;42.704;23.384;2023-04-15T12:56:10;94822.16;;;19.54;nan
4617;BME280;2321;42.704;23.384;2023-04-15T12:58:37;94830.00;;;19.61;nan
4617;BME280;2321;42.704;23.384;2023-04-15T13:01:05;94834.59;;;19.60;nan
4617;BME280;2321;42.704;23.384;2023-04-15T13:03:35;94824.06;;;19.59;nan
4617;BME280;2321;42.704;23.384;2023-04-15T13:06:06;94825.09;;;19.47;nan
4617;BME280;2321;42.704;23.384;2023-04-15T13:08:32;94815.66;;;19.50;nan
4617;BME280;2321;42.704;23.384;2023-04-15T13:10:59;94829.25;;;19.71;nan
4617;BME280;2321;42.704;23.384;2023-04-15T13:13:26;94820.63;;;19.79;nan
4617;BME280;2321;42.704;23.384;2023-04-15T13:15:53;94820.91;;;19.83;nan
4617;BME280;2321;42.704;23.384;2023-04-15T13:18:22;94821.19;;;19.87;nan
4617;BME280;2321;42.704;23.384;2023-04-15T13:20:54;94816.91;;;20.01;nan
4617;BME280;2321;42.704;23.384;2023-04-15T13:23:21;94809.31;;;20.09;nan
4617;BME280;2321;42.704;23.384;2023-04-15T13:25:48;94824.25;;;20.22;nan
4617;BME280;2321;42.704;23.384;2023-04-15T13:28:15;94823.94;;;20.13;nan
4617;BME280;2321;42.704;23.384;2023-04-15T13:30:42;94814.78;;;20.19;nan
4617;BME280;2321;42.704;23.384;2023-04-15T13:33:12;94810.19;;;20.30;nan
4617;BME280;2321;42.704;23.384;2023-04-15T13:35:41;94813.97;;;20.40;nan
4617;BME280;2321;42.704;23.384;2023-04-15T13:38:08;94812.09;;;20.45;nan
4617;BME280;2321;42.704;23.384;2023-04-15T13:40:34;94800.19;;;20.46;nan